CheckWX is a tool to help pilots better visualize weather data.  It is not intended as a substitute for an official pre-flight weather briefing.

19:13:51 UTC

KCZL METAR
Tom B David Field Airport
Calhoun, Georgia, USA
Current

19 mins ago

KCZL 221855Z AUTO 03006KT 3SM -RA 10/10 A3022 RMK AO2 SKY OBSCURED
Observed
Feb-22 @ 18:55 UTC
Wind
  • 030° at 6 KTS
Visibility
3 SM
Conditions
Light Rain
Temperature
10°C / 50°F
Dewpoint
10°C / 50°F
Humidity
100%
Altimeter
30.22" Hg
Pressure
1023.42 hPa
Previous

39 mins ago

KCZL 221835Z AUTO 01004KT 5SM -RA SCT007 10/10 A3023 RMK AO2
Observed
Feb-22 @ 18:35 UTC
Wind
  • 010° at 4 KTS
Visibility
5 SM
Flight Rules
MVFR
Conditions
Light Rain
Cloud Levels
  • Scattered at 700' AGL
Temperature
10°C / 50°F
Dewpoint
10°C / 50°F
Humidity
100%
Altimeter
30.23" Hg
Pressure
1023.72 hPa
Previous

59 mins ago

KCZL 221815Z AUTO 02006KT 7SM -RA SCT007 SCT011 10/10 A3023 RMK AO2
Observed
Feb-22 @ 18:15 UTC
Wind
  • 020° at 6 KTS
Visibility
7 SM
Flight Rules
VFR
Conditions
Light Rain
Cloud Levels
  • Scattered at 700' AGL
  • Scattered at 1,100' AGL
Temperature
10°C / 50°F
Dewpoint
10°C / 50°F
Humidity
100%
Altimeter
30.23" Hg
Pressure
1023.72 hPa